Skip Navigation LinksHome page > Weather > Current weather Skip Navigation Links

Current Weather

Pittsburgh International, Pittsburgh, Penn.

For information only: do not use for flight planning or navigation.
Latest weather
Observation time Thursday, November 21, 2019 1:51 PM EST
Local time Thursday, November 21, 2019 3:00 PM EST
Flight conditions Visual Meteorological Conditions
Winds
Wind direction South-Southeast (160°)
Wind speed 8 mph
Visibility 10 mi.
Sky condition
Ceiling 12,000 ft. overcast
Cloud layer few clouds 8,500 ft.
Cloud layer overcast 12,000 ft.
Temperature 47°F
Dewpoint 36°F
Altimeter 30.03 in.Hg
Derived measurements
Relative humidity 65%
Wind chill 43°F
Density altitude 382 ft.
Sea-level pressure 30.08 in.Hg
Remarks
Automated weather observing station with precipitation discriminator.
METAR KPIT 211851Z 16007KT 10SM FEW085 OVC120 08/02 A3003 RMK AO2 SLP185 T00830022

Settings

Location code

InnerDrive.Weather 4.0.6770.0 Release CLR 4.0.30319.42000
Copyright ©2018 Inner Drive Technology. All rights reserved. Portions Copyright ©1986-2018 David Braverman.

Find weather

Site navigation


Skip Navigation Links

Place info

Page info

PayPal - The safer, easier way to pay online!

Return home.

Copyright ©2019 Inner Drive Technology. Purveyors of fine, hand-crafted computer software. Page printed 2019-11-21T20:00:10 UTC.